createdAt,value
2023-01-10T00:01:52.015Z,98476.84
2023-01-10T00:04:19.781Z,98479.25
2023-01-10T00:06:47.128Z,98479.59
2023-01-10T00:09:14.496Z,98477.16
2023-01-10T00:12:00.937Z,98478.59
2023-01-10T00:14:29.237Z,98483.13
2023-01-10T00:16:57.363Z,98461.09
2023-01-10T00:19:25.057Z,98461.63
2023-01-10T00:21:52.527Z,98474.03
2023-01-10T00:24:20.185Z,98470.09
2023-01-10T00:26:51.303Z,98475.38
2023-01-10T00:29:24.084Z,98454.72
2023-01-10T00:31:51.661Z,98459.41
2023-01-10T00:34:19.143Z,98454.03
2023-01-10T00:36:47.983Z,98453.97
2023-01-10T00:39:16.214Z,98446.37
2023-01-10T00:42:02.370Z,98450.09
2023-01-10T00:44:29.804Z,98449.62
2023-01-10T00:46:57.074Z,98460.87
2023-01-10T00:49:24.499Z,98462.84
2023-01-10T00:51:52.232Z,98461.53
2023-01-10T00:54:19.588Z,98462.09
2023-01-10T00:56:46.966Z,98460.00
2023-01-10T00:59:14.694Z,98463.53
2023-01-10T01:01:42.142Z,98464.28
2023-01-10T01:04:09.639Z,98462.81
2023-01-10T01:06:37.378Z,98463.00
2023-01-10T01:09:04.698Z,98458.69
2023-01-10T01:11:32.109Z,98461.00
2023-01-10T01:13:59.730Z,98460.25
2023-01-10T01:16:27.052Z,98459.91
2023-01-10T01:18:54.505Z,98461.75
2023-01-10T01:21:22.136Z,98461.81
2023-01-10T01:23:51.071Z,98462.69
2023-01-10T01:26:18.416Z,98467.91
2023-01-10T01:28:46.043Z,98469.25
2023-01-10T01:31:13.464Z,98466.97
2023-01-10T01:33:40.853Z,98458.34
2023-01-10T01:36:11.434Z,98455.34
2023-01-10T01:38:39.227Z,98467.78
2023-01-10T01:41:29.459Z,98454.53
2023-01-10T01:44:04.964Z,98463.19
2023-01-10T01:46:32.792Z,98460.16
2023-01-10T01:49:00.443Z,98459.00
2023-01-10T01:51:28.619Z,98452.84
2023-01-10T01:53:57.333Z,98460.56
2023-01-10T01:56:24.836Z,98468.19
2023-01-10T01:58:58.023Z,98474.13
2023-01-10T02:01:25.701Z,98473.16
2023-01-10T02:03:55.612Z,98477.91
2023-01-10T02:06:23.778Z,98476.34
2023-01-10T02:08:55.065Z,98490.88
2023-01-10T02:11:22.692Z,98490.25
2023-01-10T02:13:50.057Z,98490.69
2023-01-10T02:16:17.594Z,98499.75
2023-01-10T02:18:45.190Z,98482.03
2023-01-10T02:21:48.266Z,98499.47
2023-01-10T02:24:26.522Z,98497.22
2023-01-10T02:27:20.408Z,98489.66
2023-01-10T02:29:53.295Z,98486.75
2023-01-10T02:32:35.474Z,98483.59
2023-01-10T02:35:18.712Z,98481.09
2023-01-10T02:38:14.088Z,98474.88
2023-01-10T02:41:02.158Z,98495.47
2023-01-10T02:43:32.552Z,98488.09
2023-01-10T02:46:05.724Z,98483.19
2023-01-10T02:48:33.138Z,98485.34
2023-01-10T02:51:04.978Z,98474.63
2023-01-10T02:53:37.811Z,98482.09
2023-01-10T02:56:25.155Z,98485.53
2023-01-10T02:59:22.913Z,98492.97
2023-01-10T03:01:56.971Z,98488.31
2023-01-10T03:04:46.158Z,98498.69
2023-01-10T03:07:22.875Z,98500.41
2023-01-10T03:09:50.126Z,98512.31
2023-01-10T03:12:27.502Z,98508.31
2023-01-10T03:14:55.367Z,98510.84
2023-01-10T03:17:22.959Z,98509.78
2023-01-10T03:19:51.756Z,98504.63
2023-01-10T03:22:19.111Z,98503.62
2023-01-10T03:24:48.672Z,98516.50
2023-01-10T03:27:20.382Z,98508.19
2023-01-10T03:29:54.976Z,98505.59
2023-01-10T03:32:24.796Z,98520.44
2023-01-10T03:34:52.421Z,98527.22
2023-01-10T03:37:41.142Z,98531.28
2023-01-10T03:40:22.481Z,98529.66
2023-01-10T03:43:24.375Z,98521.09
2023-01-10T03:46:10.637Z,98512.31
2023-01-10T03:48:39.506Z,98515.97
2023-01-10T03:51:07.204Z,98525.88
2023-01-10T03:53:34.581Z,98523.50
2023-01-10T03:56:01.960Z,98529.50
2023-01-10T03:58:29.759Z,98524.53
2023-01-10T04:00:57.301Z,98540.13
2023-01-10T04:03:25.108Z,98536.75
2023-01-10T04:05:52.482Z,98539.69
2023-01-10T04:08:19.801Z,98550.91
2023-01-10T04:10:49.469Z,98548.72
2023-01-10T04:13:16.847Z,98541.50
2023-01-10T04:15:44.207Z,98546.25
2023-01-10T04:18:13.152Z,98541.50
2023-01-10T04:20:40.510Z,98527.03
2023-01-10T04:23:07.861Z,98517.44
2023-01-10T04:25:35.475Z,98516.16
2023-01-10T04:28:02.876Z,98514.03
2023-01-10T04:30:30.304Z,98510.34
2023-01-10T04:32:57.873Z,98528.50
2023-01-10T04:35:25.360Z,98531.59
2023-01-10T04:37:52.776Z,98525.19
2023-01-10T04:40:23.398Z,98524.53
2023-01-10T04:42:50.807Z,98532.91
2023-01-10T04:45:20.309Z,98545.63
2023-01-10T04:47:51.673Z,98550.00
2023-01-10T04:50:19.112Z,98558.28
2023-01-10T04:52:46.477Z,98561.41
2023-01-10T04:55:14.199Z,98567.00
2023-01-10T04:57:41.525Z,98574.22
2023-01-10T05:00:09.784Z,98579.34
2023-01-10T05:02:42.848Z,98579.69
2023-01-10T05:05:13.781Z,98580.53
2023-01-10T05:07:41.383Z,98590.37
2023-01-10T05:10:09.532Z,98590.94
2023-01-10T05:12:36.988Z,98599.06
2023-01-10T05:15:05.427Z,98601.84
2023-01-10T05:17:33.055Z,98608.88
2023-01-10T05:20:00.401Z,98611.34
2023-01-10T05:22:28.031Z,98622.41
2023-01-10T05:24:55.402Z,98620.87
2023-01-10T05:27:22.733Z,98627.22
2023-01-10T05:29:50.338Z,98623.53
2023-01-10T05:32:17.690Z,98622.78
2023-01-10T05:34:45.034Z,98617.94
2023-01-10T05:37:12.619Z,98615.44
2023-01-10T05:39:41.463Z,98616.47
2023-01-10T05:42:08.799Z,98614.69
2023-01-10T05:44:36.413Z,98615.50
2023-01-10T05:47:03.869Z,98617.16
2023-01-10T05:49:32.947Z,98621.09
2023-01-10T05:52:01.717Z,98629.37
2023-01-10T05:54:29.798Z,98624.06
2023-01-10T05:56:57.329Z,98627.69
2023-01-10T05:59:28.690Z,98636.56
2023-01-10T06:01:56.423Z,98639.25
2023-01-10T06:04:24.068Z,98647.66
2023-01-10T06:06:51.396Z,98653.41
2023-01-10T06:09:18.747Z,98668.88
2023-01-10T06:11:46.388Z,98670.84
2023-01-10T06:14:18.993Z,98658.38
2023-01-10T06:16:47.128Z,98664.44
2023-01-10T06:19:14.550Z,98673.81
2023-01-10T06:21:41.956Z,98677.34
2023-01-10T06:24:09.823Z,98687.41
2023-01-10T06:26:37.154Z,98685.44
2023-01-10T06:29:04.521Z,98695.25
2023-01-10T06:31:32.193Z,98709.34
2023-01-10T06:33:59.824Z,98708.91
2023-01-10T06:36:27.169Z,98705.09
2023-01-10T06:38:54.774Z,98716.00
2023-01-10T06:41:22.136Z,98709.25
2023-01-10T06:43:49.531Z,98705.28
2023-01-10T06:46:19.412Z,98699.16
2023-01-10T06:48:46.981Z,98702.50
2023-01-10T06:51:14.920Z,98706.53
2023-01-10T06:53:42.910Z,98710.56
2023-01-10T06:56:10.391Z,98710.38
2023-01-10T06:58:41.342Z,98726.69
2023-01-10T07:01:17.808Z,98739.38
2023-01-10T07:03:45.511Z,98730.31
2023-01-10T07:06:13.363Z,98744.47
2023-01-10T07:08:41.784Z,98757.84
2023-01-10T07:11:09.298Z,98759.94
2023-01-10T07:13:36.933Z,98773.97
2023-01-10T07:16:08.791Z,98781.84
2023-01-10T07:18:36.422Z,98794.00
2023-01-10T07:21:04.248Z,98801.25
2023-01-10T07:23:31.695Z,98797.66
2023-01-10T07:26:02.487Z,98799.97
2023-01-10T07:28:30.120Z,98815.00
2023-01-10T07:31:04.261Z,98811.66
2023-01-10T07:33:32.057Z,98813.31
2023-01-10T07:36:00.564Z,98820.72
2023-01-10T07:38:28.367Z,98821.56
2023-01-10T07:40:55.988Z,98824.25
2023-01-10T07:43:23.340Z,98828.75
2023-01-10T07:45:50.674Z,98831.12
2023-01-10T07:48:18.281Z,98836.59
2023-01-10T07:50:46.417Z,98854.31
2023-01-10T07:53:13.870Z,98859.28
2023-01-10T07:55:41.753Z,98859.94
2023-01-10T07:58:09.137Z,98859.09
2023-01-10T08:00:36.585Z,98868.81
2023-01-10T08:03:04.457Z,98875.88
2023-01-10T08:05:31.971Z,98889.69
2023-01-10T08:08:10.526Z,98883.97
2023-01-10T08:10:38.839Z,98892.88
2023-01-10T08:13:17.730Z,98897.53
2023-01-10T08:15:50.304Z,98900.41
2023-01-10T08:18:18.327Z,98904.63
2023-01-10T08:20:47.983Z,98906.53
2023-01-10T08:23:15.691Z,98920.78
2023-01-10T08:25:43.125Z,98931.16
2023-01-10T08:28:10.467Z,98942.94
2023-01-10T08:30:38.242Z,98957.13
2023-01-10T08:33:06.411Z,98956.22
2023-01-10T08:35:40.552Z,98961.62
2023-01-10T08:38:08.556Z,98955.41
2023-01-10T08:40:36.125Z,98959.44
2023-01-10T08:43:05.132Z,98966.94
2023-01-10T08:45:32.823Z,98971.47
2023-01-10T08:48:00.166Z,98978.31
2023-01-10T08:50:27.558Z,98977.31
2023-01-10T08:52:58.115Z,98982.44
2023-01-10T08:55:25.522Z,98989.16
2023-01-10T08:57:53.112Z,98988.88
2023-01-10T09:00:21.217Z,98997.88
2023-01-10T09:02:48.629Z,99001.25
2023-01-10T09:05:27.012Z,99010.66
2023-01-10T09:07:59.717Z,99013.09
2023-01-10T09:10:28.033Z,99015.88
2023-01-10T09:12:57.215Z,99025.84
2023-01-10T09:15:26.433Z,99051.56
2023-01-10T09:18:01.289Z,99037.44
2023-01-10T09:20:29.466Z,99044.38
2023-01-10T09:22:57.188Z,99048.47
2023-01-10T09:25:25.012Z,99054.13
2023-01-10T09:27:59.355Z,99062.50
2023-01-10T09:30:27.315Z,99057.81
2023-01-10T09:32:55.337Z,99068.97
2023-01-10T09:35:23.248Z,99076.59
2023-01-10T09:37:50.619Z,99079.41
2023-01-10T09:40:20.385Z,99090.50
2023-01-10T09:43:07.300Z,99091.94
2023-01-10T09:45:59.001Z,99107.22
2023-01-10T09:48:31.919Z,99112.66
2023-01-10T09:51:38.662Z,99114.28
2023-01-10T09:54:12.822Z,99119.91
2023-01-10T09:56:40.832Z,99130.19
2023-01-10T09:59:29.835Z,99117.53
2023-01-10T10:02:04.821Z,99120.00
2023-01-10T10:04:35.634Z,99139.81
2023-01-10T10:07:04.159Z,99131.50
2023-01-10T10:09:33.407Z,99139.37
2023-01-10T10:12:28.259Z,99150.22
2023-01-10T10:15:04.828Z,99140.72
2023-01-10T10:17:50.842Z,99139.00
2023-01-10T10:20:42.900Z,99143.84
2023-01-10T10:23:14.233Z,99139.78
2023-01-10T10:25:51.872Z,99135.62
2023-01-10T10:28:34.507Z,99144.78
2023-01-10T10:31:25.301Z,99152.78
2023-01-10T10:34:07.789Z,99149.13
2023-01-10T10:37:02.918Z,99152.25
2023-01-10T10:39:38.565Z,99152.41
2023-01-10T10:42:06.856Z,99161.94
2023-01-10T10:44:49.433Z,99171.47
2023-01-10T10:47:18.677Z,99176.75
2023-01-10T10:50:11.411Z,99174.88
2023-01-10T10:52:39.154Z,99177.16
2023-01-10T10:55:07.123Z,99168.94
2023-01-10T10:57:35.388Z,99205.88
2023-01-10T11:00:03.447Z,99179.41
2023-01-10T11:02:32.708Z,99206.28
2023-01-10T11:05:02.191Z,99187.38
2023-01-10T11:07:34.249Z,99194.59
2023-01-10T11:10:21.777Z,99203.09
2023-01-10T11:12:51.192Z,99215.16
2023-01-10T11:15:38.935Z,99206.53
2023-01-10T11:18:17.314Z,99213.91
2023-01-10T11:20:49.104Z,99217.28
2023-01-10T11:23:40.731Z,99223.28
2023-01-10T11:26:21.328Z,99235.44
2023-01-10T11:28:48.940Z,99230.91
2023-01-10T11:31:16.519Z,99238.34
2023-01-10T11:33:43.955Z,99243.72
2023-01-10T11:36:13.184Z,99253.28
2023-01-10T11:38:59.028Z,99255.09
2023-01-10T11:41:31.431Z,99255.03
2023-01-10T11:44:21.625Z,99260.38
2023-01-10T11:46:49.513Z,99257.34
2023-01-10T11:49:24.898Z,99253.09
2023-01-10T11:51:53.004Z,99268.50
2023-01-10T11:54:24.755Z,99270.91
2023-01-10T11:56:59.197Z,99274.00
2023-01-10T11:59:26.847Z,99255.84
2023-01-10T12:02:35.813Z,99230.22
2023-01-10T12:05:05.612Z,99230.19
2023-01-10T12:07:56.278Z,99230.56
2023-01-10T12:10:25.412Z,99250.31
2023-01-10T12:12:58.174Z,99256.84
2023-01-10T12:15:34.479Z,99254.75
2023-01-10T12:18:03.325Z,99247.78
2023-01-10T12:20:32.896Z,99262.53
2023-01-10T12:23:13.511Z,99260.84
2023-01-10T12:25:41.707Z,99252.31
2023-01-10T12:28:29.081Z,99270.56
2023-01-10T12:30:58.746Z,99264.56
2023-01-10T12:33:37.725Z,99278.94
2023-01-10T12:36:08.652Z,99271.38
2023-01-10T12:39:03.802Z,99268.16
2023-01-10T12:42:02.494Z,99276.09
2023-01-10T12:44:45.603Z,99266.22
2023-01-10T12:47:25.269Z,99265.72
2023-01-10T12:50:00.221Z,99274.19
2023-01-10T12:52:50.186Z,99272.44
2023-01-10T12:55:22.138Z,99273.94
2023-01-10T12:58:01.602Z,99264.13
2023-01-10T13:00:32.863Z,99275.13
2023-01-10T13:03:11.020Z,99250.25
2023-01-10T13:05:38.463Z,99270.37
2023-01-10T13:08:13.008Z,99249.81
2023-01-10T13:10:51.433Z,99252.66
2023-01-10T13:13:41.367Z,99236.34
2023-01-10T13:16:29.247Z,99215.31
2023-01-10T13:19:11.158Z,99213.31
2023-01-10T13:21:39.455Z,99180.44
2023-01-10T13:24:18.025Z,99249.56
2023-01-10T13:26:58.630Z,99251.94
2023-01-10T13:29:29.067Z,99236.06
2023-01-10T13:32:01.401Z,99237.66
2023-01-10T13:34:33.783Z,99264.13
2023-01-10T13:37:27.432Z,99283.00
2023-01-10T13:39:58.956Z,99282.38
2023-01-10T13:42:52.481Z,99285.25
2023-01-10T13:45:24.283Z,99287.41
2023-01-10T13:47:54.551Z,99311.00
2023-01-10T13:50:36.255Z,99290.56
2023-01-10T13:53:08.479Z,99299.34
2023-01-10T13:55:39.087Z,99300.87
2023-01-10T13:58:09.232Z,99287.19
2023-01-10T14:00:55.440Z,99470.44
2023-01-10T14:03:46.006Z,99470.88
2023-01-10T14:06:20.759Z,99459.06
2023-01-10T14:08:53.774Z,99464.06
2023-01-10T14:11:22.935Z,99473.69
2023-01-10T14:13:53.948Z,99476.25
2023-01-10T14:16:35.540Z,99471.53
2023-01-10T14:19:05.149Z,99480.03
2023-01-10T14:21:37.011Z,99487.56
2023-01-10T14:24:04.780Z,99493.81
2023-01-10T14:26:35.538Z,99493.09
2023-01-10T14:29:08.704Z,99491.63
2023-01-10T14:31:37.209Z,99495.12
2023-01-10T14:34:06.077Z,99499.25
2023-01-10T14:36:37.265Z,99515.66
2023-01-10T14:39:06.403Z,99518.16
2023-01-10T14:41:56.541Z,99524.25
2023-01-10T14:44:54.410Z,99535.00
2023-01-10T14:47:29.805Z,99551.97
2023-01-10T14:50:01.563Z,99548.50
2023-01-10T14:52:29.054Z,99547.50
2023-01-10T14:55:13.205Z,99553.84
2023-01-10T14:57:40.625Z,99548.72
2023-01-10T15:00:18.028Z,99553.25
2023-01-10T15:02:45.997Z,99550.44
2023-01-10T15:05:27.000Z,99560.94
2023-01-10T15:07:54.960Z,99561.44
2023-01-10T15:10:30.495Z,99572.72
2023-01-10T15:13:01.701Z,99571.09
2023-01-10T15:15:31.733Z,99564.94
2023-01-10T15:17:59.811Z,99569.44
2023-01-10T15:20:27.196Z,99570.59
2023-01-10T15:22:59.257Z,99575.56
2023-01-10T15:25:28.259Z,99588.44
2023-01-10T15:27:57.495Z,99593.16
2023-01-10T15:30:35.520Z,99594.34
2023-01-10T15:33:09.706Z,99606.44
2023-01-10T15:35:38.004Z,99616.00
2023-01-10T15:38:07.626Z,99622.03
2023-01-10T15:40:36.692Z,99608.75
2023-01-10T15:43:24.407Z,99622.31
2023-01-10T15:45:53.155Z,99620.19
2023-01-10T15:48:33.797Z,99622.88
2023-01-10T15:51:03.788Z,99622.88
2023-01-10T15:54:06.047Z,99651.09
2023-01-10T15:56:39.454Z,99638.06
2023-01-10T15:59:23.409Z,99637.38
2023-01-10T16:01:55.906Z,99637.75
2023-01-10T16:04:23.648Z,99655.38
2023-01-10T16:06:52.619Z,99642.47
2023-01-10T16:09:21.231Z,99650.25
2023-01-10T16:12:11.098Z,99663.53
2023-01-10T16:14:38.458Z,99664.56
2023-01-10T16:17:06.217Z,99672.16
2023-01-10T16:19:34.501Z,99671.66
2023-01-10T16:22:01.895Z,99680.41
2023-01-10T16:24:36.297Z,99661.78
2023-01-10T16:27:05.752Z,99683.63
2023-01-10T16:29:33.710Z,99673.22
2023-01-10T16:32:01.147Z,99675.72
2023-01-10T16:34:28.548Z,99683.97
2023-01-10T16:36:56.436Z,99700.50
2023-01-10T16:39:23.865Z,99695.75
2023-01-10T16:42:09.958Z,99705.44
2023-01-10T16:44:37.786Z,99699.38
2023-01-10T16:47:07.055Z,99700.00
2023-01-10T16:49:34.688Z,99714.16
2023-01-10T16:52:03.579Z,99722.09
2023-01-10T16:54:31.261Z,99719.56
2023-01-10T16:56:58.610Z,99714.78
2023-01-10T16:59:26.194Z,99732.72
2023-01-10T17:01:55.315Z,99734.50
2023-01-10T17:04:27.198Z,99733.34
2023-01-10T17:06:56.685Z,99740.50
2023-01-10T17:09:28.544Z,99737.31
2023-01-10T17:12:07.262Z,99739.12
2023-01-10T17:14:35.455Z,99749.00
2023-01-10T17:17:03.181Z,99747.63
2023-01-10T17:19:30.565Z,99750.88
2023-01-10T17:21:57.985Z,99752.44
2023-01-10T17:24:25.629Z,99760.34
2023-01-10T17:26:53.002Z,99762.03
2023-01-10T17:29:22.459Z,99762.50
2023-01-10T17:31:50.990Z,99764.91
2023-01-10T17:34:18.546Z,99773.25
2023-01-10T17:36:45.952Z,99775.38
2023-01-10T17:39:13.579Z,99777.41
2023-01-10T17:41:40.907Z,99796.50
2023-01-10T17:44:08.239Z,99789.31
2023-01-10T17:46:35.951Z,99798.47
2023-01-10T17:49:03.291Z,99790.13
2023-01-10T17:51:30.742Z,99793.44
2023-01-10T17:53:58.491Z,99789.47
2023-01-10T17:56:25.847Z,99795.97
2023-01-10T17:58:53.727Z,99787.37
2023-01-10T18:01:25.217Z,99803.56
2023-01-10T18:03:53.293Z,99797.59
2023-01-10T18:06:25.147Z,99807.59
2023-01-10T18:08:53.781Z,99791.66
2023-01-10T18:11:22.825Z,99809.75
2023-01-10T18:13:50.215Z,99795.09
2023-01-10T18:16:17.948Z,99804.41
2023-01-10T18:18:45.353Z,99809.25
2023-01-10T18:21:13.693Z,99816.00
2023-01-10T18:23:41.333Z,99813.44
2023-01-10T18:26:10.163Z,99812.91
2023-01-10T18:28:41.793Z,99804.47
2023-01-10T18:31:17.497Z,99810.47
2023-01-10T18:33:45.896Z,99811.22
2023-01-10T18:36:21.356Z,99811.81
2023-01-10T18:38:48.952Z,99823.56
2023-01-10T18:41:16.870Z,99826.19
2023-01-10T18:43:44.250Z,99825.09
2023-01-10T18:46:13.269Z,99835.81
2023-01-10T18:48:41.044Z,99831.41
2023-01-10T18:51:10.034Z,99835.88
2023-01-10T18:53:37.500Z,99839.84
2023-01-10T18:56:05.444Z,99832.72
2023-01-10T18:58:34.404Z,99839.19
2023-01-10T19:01:06.482Z,99842.09
2023-01-10T19:03:34.144Z,99829.47
2023-01-10T19:06:02.261Z,99838.31
2023-01-10T19:08:29.705Z,99838.03
2023-01-10T19:11:12.259Z,99833.47
2023-01-10T19:13:40.703Z,99837.50
2023-01-10T19:16:18.818Z,99843.69
2023-01-10T19:18:56.654Z,99841.41
2023-01-10T19:21:24.659Z,99839.63
2023-01-10T19:23:54.994Z,99853.31
2023-01-10T19:26:22.612Z,99841.34
2023-01-10T19:28:50.392Z,99838.19
2023-01-10T19:31:18.815Z,99844.81
2023-01-10T19:33:47.670Z,99853.38
2023-01-10T19:36:15.942Z,99856.34
2023-01-10T19:38:43.491Z,99852.31
2023-01-10T19:41:11.088Z,99870.38
2023-01-10T19:43:38.695Z,99865.09
2023-01-10T19:46:10.268Z,99866.91
2023-01-10T19:48:38.390Z,99864.81
2023-01-10T19:51:11.188Z,99872.47
2023-01-10T19:53:42.137Z,99876.47
2023-01-10T19:56:10.324Z,99874.25
2023-01-10T19:58:38.030Z,99882.38
2023-01-10T20:01:09.822Z,99877.53
2023-01-10T20:03:38.706Z,99880.13
2023-01-10T20:06:06.439Z,99886.56
2023-01-10T20:08:33.992Z,99887.97
2023-01-10T20:11:05.607Z,99885.06
2023-01-10T20:13:33.622Z,99894.09
2023-01-10T20:16:01.225Z,99890.19
2023-01-10T20:18:28.909Z,99891.19
2023-01-10T20:20:56.585Z,99902.06
2023-01-10T20:23:24.032Z,99895.94
2023-01-10T20:25:59.045Z,99887.16
2023-01-10T20:28:26.501Z,99906.22
2023-01-10T20:30:54.149Z,99906.91
2023-01-10T20:33:26.569Z,99903.81
2023-01-10T20:36:04.704Z,99904.38
2023-01-10T20:38:33.589Z,99915.53
2023-01-10T20:41:02.494Z,99917.84
2023-01-10T20:43:29.854Z,99927.19
2023-01-10T20:45:57.295Z,99927.19
2023-01-10T20:48:24.880Z,99919.22
2023-01-10T20:50:52.236Z,99929.81
2023-01-10T20:53:19.569Z,99935.28
2023-01-10T20:55:59.083Z,99943.03
2023-01-10T20:58:27.248Z,99954.44
2023-01-10T21:00:54.838Z,99957.91
2023-01-10T21:03:22.207Z,99948.28
2023-01-10T21:05:50.674Z,99945.53
2023-01-10T21:08:18.803Z,99937.28
2023-01-10T21:10:46.497Z,99927.91
2023-01-10T21:13:13.909Z,99928.38
2023-01-10T21:15:43.569Z,99938.72
2023-01-10T21:18:11.780Z,99937.16
2023-01-10T21:20:42.821Z,99942.59
2023-01-10T21:23:10.670Z,99931.63
2023-01-10T21:25:38.133Z,99937.72
2023-01-10T21:28:09.602Z,99933.31
2023-01-10T21:30:37.440Z,99930.91
2023-01-10T21:33:04.837Z,99936.06
2023-01-10T21:35:32.985Z,99936.31
2023-01-10T21:38:00.838Z,99938.28
2023-01-10T21:40:28.658Z,99942.19
2023-01-10T21:42:56.036Z,99943.56
2023-01-10T21:45:23.824Z,99937.47
2023-01-10T21:47:51.169Z,99941.84
2023-01-10T21:50:21.390Z,99940.69
2023-01-10T21:52:49.944Z,99945.50
2023-01-10T21:55:17.324Z,99946.94
2023-01-10T21:57:44.723Z,99947.50
2023-01-10T22:00:12.738Z,99949.41
2023-01-10T22:02:39.993Z,99946.63
2023-01-10T22:05:08.160Z,99942.66
2023-01-10T22:07:35.543Z,99943.84
2023-01-10T22:10:03.611Z,99943.25
2023-01-10T22:12:31.313Z,99951.22
2023-01-10T22:14:58.715Z,99952.28
2023-01-10T22:17:26.080Z,99946.84
2023-01-10T22:19:53.699Z,99937.59
2023-01-10T22:22:21.011Z,99951.09
2023-01-10T22:24:48.468Z,99948.25
2023-01-10T22:27:16.172Z,99942.16
2023-01-10T22:29:43.620Z,99948.25
2023-01-10T22:32:11.175Z,99939.25
2023-01-10T22:34:38.771Z,99939.91
2023-01-10T22:37:06.121Z,99947.53
2023-01-10T22:39:33.520Z,99946.81
2023-01-10T22:42:01.359Z,99954.25
2023-01-10T22:44:28.779Z,99938.88
2023-01-10T22:46:56.156Z,99943.09
2023-01-10T22:49:23.877Z,99940.97
2023-01-10T22:51:51.281Z,99944.28
2023-01-10T22:54:18.683Z,99950.34
2023-01-10T22:56:46.533Z,99934.53
2023-01-10T22:59:26.081Z,99936.16
2023-01-10T23:01:53.620Z,99936.53
2023-01-10T23:04:22.040Z,99937.31
2023-01-10T23:06:50.178Z,99940.78
2023-01-10T23:09:17.880Z,99938.66
2023-01-10T23:11:45.174Z,99938.53
2023-01-10T23:14:12.521Z,99939.06
2023-01-10T23:16:40.262Z,99939.87
2023-01-10T23:19:07.560Z,99937.59
2023-01-10T23:21:34.892Z,99942.03
2023-01-10T23:24:02.576Z,99940.00
2023-01-10T23:26:29.887Z,99940.69
2023-01-10T23:28:57.162Z,99936.31
2023-01-10T23:31:29.270Z,99943.00
2023-01-10T23:33:57.033Z,99967.69
2023-01-10T23:36:24.670Z,99952.56
2023-01-10T23:38:52.117Z,99952.91
2023-01-10T23:41:22.216Z,99941.47
2023-01-10T23:43:50.157Z,99952.47
2023-01-10T23:46:17.994Z,99940.09
2023-01-10T23:48:46.464Z,99942.38
2023-01-10T23:51:14.417Z,99924.87
2023-01-10T23:53:41.803Z,99934.03
2023-01-10T23:56:10.175Z,99935.13
2023-01-10T23:58:37.710Z,99937.66
